메인 페이지
METAR-TAF:

METAR-TAF

공항 :

헬싱키 반타 국제공항

헬싱키, 핀란드

위도: 60-19N, 경도: 024-58E, 고도: 51m

현재 날씨관측

예보는 29분 전, 11:20시(UTC)에 발표되었습니다.
남동9kt풍과 남남동풍을 오가는
온도 24°C
습도 65%
기압 1012 hPa
시정 10km 이상
고도 3000ft 상공 구름 조금

METAR: EFHK 241120Z 13009KT 100V160 9999 FEW030 24/17 Q1012 NOSIG

시각: 14:49 (11:49 UTC)

예보

예보는 3 시간 20분 전, 08:29시(UTC)에 발표되었습니다.
예보 대상 시간: 24일 09시부터 25일 09시까지 (UTC)
남동10kt
시정 10km 이상
1500m 미만 상공 구름 및 적란운 없음
일시적
24일 09시부터 24일 18시까지 (UTC)
고도 4000ft 상공 구름 조금, 적란운.
확률 30% :
일시적
24일 09시부터 24일 16시까지 (UTC)
시정: 4500m
뇌우, 비
전환 중
24일 17시부터 24일 19시까지 (UTC)
여러 방향의 바람 2kt
확률 30% :
일시적
24일 20시부터 24일 24시까지 (UTC)
고도 5000ft 상공 구름 조금, 적란운.

TAF: EFHK 240829Z 2409/2509 14010KT CAVOK TEMPO 2409/2418 FEW040CB PROB30 TEMPO 2409/2416 4500 TSRA BECMG 2417/2419 VRB02KT PROB30 TEMPO 2420/2424 FEW050CB

4,000개 이상의 공항 관측 자료 및 예보 (METAR 및 TAF 보고).

지도상에서 검색 가능한 기상관측소가 노란 점과 빨간 점으로 표시되어 있습니다.

기상관측소 명을 보려면 표시 위로 마우스를 이동하세요.

날씨 관측과 예보를 보려면 클릭하세요.

지도 변경 : 확대하려면 엑스 표시가 있는 녹색 버튼, 축소하려면 빼기 표시가 있는 녹색 버튼, 다음 페이지의 지도를 보려면 녹색 화살표를 클릭하세요.


METAR-TAF: